Current | Forecast
Updated: 6:15 AM CET on January 24, 2018
Observed at Kecskemet, Hungary
Temperature -1°C
Windchill -4°C
Humidity 100%
Dew Point -1°C
Wind SSE at 7 km/h
Pressure 1032 hPa (Steady)
Conditions Overcast
Visibility 3.0 kilometers
UV 0 out of 16
Clouds Overcast (OVC) : 2133 m
Yesterday's Maximum 2°C
Yesterday's Minimum -2°C approx.
Yesterday's Heating Degree Days 33 approx.
Sunrise7:18 AM CET
Sunset4:33 PM CET
Moon Rise10:54 AM CET
Moon Set
Moon PhaseMoon Phase
Waxing Crescent
Raw METARMETAR LHKE 240515Z 15004KT 3000 BR OVC070 M01/M01 Q1032 NOSIG RMK YLO


Monday
. High: 64° F.
Tuesday
. High: 77° F.
Wednesday
. High: 80° F.
Thursday
. High: 77° F.
Friday
. High: 68° F.
Saturday
. High: 69° F.
Sunday
. High: 71° F.
Monday
. High: 69° F.

Units: English | Metric

Find the Weather for any City, State or Zipcode, or Country:

U.S. State List | Severe Weather | Tropical Storms | Ski Conditions
United States | Canada | Central America | South America | Asia | Europe | Australia | Africa | Islands

Weather Underground

© Copyright 2018
The Weather Company, LLC